False Pass, AK (99583)

9:35 AM AKST on December 10, 2016 (GMT -0900)
False Pass | | Change Station

Elev 20 ft 54.85 °N, 163.41 °W | Updated 34 minutes ago

Overcast
Overcast
31 °F
Feels Like 24 °F
N
8
Wind Variable Wind from West

Today
High -- | Low -- °F
--% Chance of Precip.
Yesterday
High -- | Low -- °F
Precip. -- in
Pressure 30.45 in
Visibility 10.0 miles
Clouds Overcast 2100 ft
Windchill 24 °F
Dew Point 25 °F
Humidity 79%
Rainfall 0.00 in
Snow Depth Not available.
10:07 AM 5:26 PM
Waxing Gibbous, 85% visible
METAR PAKF 101801Z AUTO 27007KT 10SM OVC021 M01/M04 A3016 RMK AO2 SLP309 60000 T10061039 11006 21011 58002 FZRANO $
Pressure 30.45 in
Visibility 10.0 miles
Clouds Overcast 2100 ft
Windchill 24 °F
Dew Point 25 °F
Humidity 79%
Rainfall 0.00 in
Snow Depth Not available.
10:07 AM 5:26 PM
Waxing Gibbous, 85% visible
METAR PAKF 101801Z AUTO 27007KT 10SM OVC021 M01/M04 A3016 RMK AO2 SLP309 60000 T10061039 11006 21011 58002 FZRANO $

10-Day Weather Forecast

Almanac

Astronomy

Dec. 10, 2016 Rise Set
Actual Time
Civil Twilight
Nautical Twilight
Astronomical Twilight
Moon
Length of Visible Light
Length of Day
Tomorrow will be .
, % of the Moon is Illuminated

Today's Extremes

State Highs State Lows

Community

WunderPhotos

Upload Photos

1,956,619 photos uploaded!

WunderBlog® & News

Nearby

Air Quality

  Air Quality AQ Index Pollutant
Not available.

Snow Depth

Station Depth Elevation

Earthquake Activity

City Distance Mag. Time & Date
Minimum magnitude displayed is 2.5.

Coastal Water Temperatures

Place Temperature

Stations

Nearby Weather Stations

Station Location Temp. Windchill Dew Point Humidity Wind Precip. Elev Updated Type
                   

Watches & Warnings

There are currently no watches in effect.